sensor_id;sensor_type;location;lat;lon;timestamp;P1;durP1;ratioP1;P2;durP2;ratioP2
31306;SDS011;17935;51.120;13.132;2023-07-24T00:01:05;7.50;;;3.80;;
31306;SDS011;17935;51.120;13.132;2023-07-24T00:03:31;6.97;;;3.45;;
31306;SDS011;17935;51.120;13.132;2023-07-24T00:05:57;5.75;;;3.65;;
31306;SDS011;17935;51.120;13.132;2023-07-24T00:08:24;4.18;;;2.88;;
31306;SDS011;17935;51.120;13.132;2023-07-24T00:10:50;5.70;;;3.72;;
31306;SDS011;17935;51.120;13.132;2023-07-24T00:13:16;9.85;;;3.80;;
31306;SDS011;17935;51.120;13.132;2023-07-24T00:15:42;5.70;;;4.18;;
31306;SDS011;17935;51.120;13.132;2023-07-24T00:18:08;9.63;;;4.03;;
31306;SDS011;17935;51.120;13.132;2023-07-24T00:20:34;4.85;;;3.47;;
31306;SDS011;17935;51.120;13.132;2023-07-24T00:23:00;7.10;;;3.45;;
31306;SDS011;17935;51.120;13.132;2023-07-24T00:25:26;5.07;;;3.60;;
31306;SDS011;17935;51.120;13.132;2023-07-24T00:27:52;10.90;;;3.60;;
31306;SDS011;17935;51.120;13.132;2023-07-24T00:30:18;4.43;;;3.38;;
31306;SDS011;17935;51.120;13.132;2023-07-24T00:32:44;4.78;;;3.60;;
31306;SDS011;17935;51.120;13.132;2023-07-24T00:35:10;6.20;;;3.35;;
31306;SDS011;17935;51.120;13.132;2023-07-24T00:37:36;4.07;;;3.15;;
31306;SDS011;17935;51.120;13.132;2023-07-24T00:40:02;5.72;;;3.55;;
31306;SDS011;17935;51.120;13.132;2023-07-24T00:42:29;9.73;;;4.05;;
31306;SDS011;17935;51.120;13.132;2023-07-24T00:44:55;4.35;;;3.47;;
31306;SDS011;17935;51.120;13.132;2023-07-24T00:47:21;5.18;;;3.10;;
31306;SDS011;17935;51.120;13.132;2023-07-24T00:49:47;7.57;;;3.97;;
31306;SDS011;17935;51.120;13.132;2023-07-24T00:52:14;4.07;;;3.22;;
31306;SDS011;17935;51.120;13.132;2023-07-24T00:54:40;4.80;;;4.07;;
31306;SDS011;17935;51.120;13.132;2023-07-24T00:57:06;5.65;;;3.47;;
31306;SDS011;17935;51.120;13.132;2023-07-24T00:59:33;6.15;;;4.07;;
31306;SDS011;17935;51.120;13.132;2023-07-24T01:01:59;5.32;;;3.47;;
31306;SDS011;17935;51.120;13.132;2023-07-24T01:04:25;5.78;;;3.67;;
31306;SDS011;17935;51.120;13.132;2023-07-24T01:06:51;6.63;;;4.20;;
31306;SDS011;17935;51.120;13.132;2023-07-24T01:09:17;5.97;;;3.85;;
31306;SDS011;17935;51.120;13.132;2023-07-24T01:11:44;4.65;;;3.33;;
31306;SDS011;17935;51.120;13.132;2023-07-24T01:14:13;4.45;;;3.42;;
31306;SDS011;17935;51.120;13.132;2023-07-24T01:16:44;6.80;;;3.80;;
31306;SDS011;17935;51.120;13.132;2023-07-24T01:19:16;5.18;;;3.80;;
31306;SDS011;17935;51.120;13.132;2023-07-24T01:21:56;5.38;;;3.58;;
31306;SDS011;17935;51.120;13.132;2023-07-24T01:24:29;5.43;;;3.67;;
31306;SDS011;17935;51.120;13.132;2023-07-24T01:26:56;5.05;;;3.60;;
31306;SDS011;17935;51.120;13.132;2023-07-24T01:29:22;5.47;;;3.47;;
31306;SDS011;17935;51.120;13.132;2023-07-24T01:31:48;4.43;;;3.45;;
31306;SDS011;17935;51.120;13.132;2023-07-24T01:34:14;4.53;;;3.55;;
31306;SDS011;17935;51.120;13.132;2023-07-24T01:36:40;8.70;;;3.60;;
31306;SDS011;17935;51.120;13.132;2023-07-24T01:39:06;5.22;;;3.97;;
31306;SDS011;17935;51.120;13.132;2023-07-24T01:41:32;5.18;;;3.63;;
31306;SDS011;17935;51.120;13.132;2023-07-24T01:43:58;5.68;;;3.47;;
31306;SDS011;17935;51.120;13.132;2023-07-24T01:46:24;4.18;;;3.17;;
31306;SDS011;17935;51.120;13.132;2023-07-24T01:48:51;4.95;;;3.55;;
31306;SDS011;17935;51.120;13.132;2023-07-24T01:51:17;4.40;;;3.42;;
31306;SDS011;17935;51.120;13.132;2023-07-24T01:53:43;4.85;;;3.70;;
31306;SDS011;17935;51.120;13.132;2023-07-24T01:56:09;5.22;;;3.67;;
31306;SDS011;17935;51.120;13.132;2023-07-24T01:58:35;7.18;;;3.25;;
31306;SDS011;17935;51.120;13.132;2023-07-24T02:01:01;4.93;;;3.80;;
31306;SDS011;17935;51.120;13.132;2023-07-24T02:03:27;7.88;;;5.00;;
31306;SDS011;17935;51.120;13.132;2023-07-24T02:05:53;5.22;;;3.65;;
31306;SDS011;17935;51.120;13.132;2023-07-24T02:08:19;7.22;;;4.30;;
31306;SDS011;17935;51.120;13.132;2023-07-24T02:10:48;5.15;;;3.60;;
31306;SDS011;17935;51.120;13.132;2023-07-24T02:13:14;8.23;;;3.28;;
31306;SDS011;17935;51.120;13.132;2023-07-24T02:15:40;8.77;;;3.40;;
31306;SDS011;17935;51.120;13.132;2023-07-24T02:18:06;6.60;;;3.80;;
31306;SDS011;17935;51.120;13.132;2023-07-24T02:20:32;4.70;;;4.00;;
31306;SDS011;17935;51.120;13.132;2023-07-24T02:22:59;3.60;;;2.78;;
31306;SDS011;17935;51.120;13.132;2023-07-24T02:25:25;7.10;;;3.75;;
31306;SDS011;17935;51.120;13.132;2023-07-24T02:27:51;4.90;;;3.67;;
31306;SDS011;17935;51.120;13.132;2023-07-24T02:30:17;4.82;;;3.75;;
31306;SDS011;17935;51.120;13.132;2023-07-24T02:32:43;11.38;;;4.32;;
31306;SDS011;17935;51.120;13.132;2023-07-24T02:35:09;4.60;;;3.55;;
31306;SDS011;17935;51.120;13.132;2023-07-24T02:37:35;5.75;;;3.75;;
31306;SDS011;17935;51.120;13.132;2023-07-24T02:40:01;8.20;;;4.32;;
31306;SDS011;17935;51.120;13.132;2023-07-24T02:42:27;5.38;;;3.45;;
31306;SDS011;17935;51.120;13.132;2023-07-24T02:44:53;9.82;;;4.47;;
31306;SDS011;17935;51.120;13.132;2023-07-24T02:47:19;5.07;;;4.10;;
31306;SDS011;17935;51.120;13.132;2023-07-24T02:49:45;7.65;;;3.95;;
31306;SDS011;17935;51.120;13.132;2023-07-24T02:52:11;5.10;;;3.45;;
31306;SDS011;17935;51.120;13.132;2023-07-24T02:54:37;5.55;;;3.58;;
31306;SDS011;17935;51.120;13.132;2023-07-24T02:57:03;4.13;;;3.47;;
31306;SDS011;17935;51.120;13.132;2023-07-24T02:59:29;4.57;;;3.40;;
31306;SDS011;17935;51.120;13.132;2023-07-24T03:01:56;7.18;;;3.97;;
31306;SDS011;17935;51.120;13.132;2023-07-24T03:04:23;7.63;;;3.35;;
31306;SDS011;17935;51.120;13.132;2023-07-24T03:06:49;6.78;;;4.10;;
31306;SDS011;17935;51.120;13.132;2023-07-24T03:09:15;5.45;;;3.90;;
31306;SDS011;17935;51.120;13.132;2023-07-24T03:11:41;4.90;;;3.78;;
31306;SDS011;17935;51.120;13.132;2023-07-24T03:14:07;4.55;;;3.63;;
31306;SDS011;17935;51.120;13.132;2023-07-24T03:16:34;4.82;;;4.07;;
31306;SDS011;17935;51.120;13.132;2023-07-24T03:19:00;6.07;;;4.30;;
31306;SDS011;17935;51.120;13.132;2023-07-24T03:21:26;6.10;;;3.97;;
31306;SDS011;17935;51.120;13.132;2023-07-24T03:23:52;6.60;;;4.40;;
31306;SDS011;17935;51.120;13.132;2023-07-24T03:26:18;8.85;;;4.53;;
31306;SDS011;17935;51.120;13.132;2023-07-24T03:28:44;8.15;;;4.13;;
31306;SDS011;17935;51.120;13.132;2023-07-24T03:31:10;6.93;;;4.13;;
31306;SDS011;17935;51.120;13.132;2023-07-24T03:33:36;5.90;;;4.45;;
31306;SDS011;17935;51.120;13.132;2023-07-24T03:36:02;5.82;;;3.60;;
31306;SDS011;17935;51.120;13.132;2023-07-24T03:38:28;5.82;;;4.00;;
31306;SDS011;17935;51.120;13.132;2023-07-24T03:40:54;5.75;;;4.00;;
31306;SDS011;17935;51.120;13.132;2023-07-24T03:43:20;5.60;;;3.80;;
31306;SDS011;17935;51.120;13.132;2023-07-24T03:45:46;6.47;;;4.40;;
31306;SDS011;17935;51.120;13.132;2023-07-24T03:48:12;4.28;;;3.40;;
31306;SDS011;17935;51.120;13.132;2023-07-24T03:50:40;6.10;;;4.28;;
31306;SDS011;17935;51.120;13.132;2023-07-24T03:53:06;4.90;;;3.60;;
31306;SDS011;17935;51.120;13.132;2023-07-24T03:55:32;5.88;;;3.92;;
31306;SDS011;17935;51.120;13.132;2023-07-24T03:57:58;7.80;;;5.13;;
31306;SDS011;17935;51.120;13.132;2023-07-24T04:00:24;6.97;;;3.90;;
31306;SDS011;17935;51.120;13.132;2023-07-24T04:02:50;5.45;;;3.83;;
31306;SDS011;17935;51.120;13.132;2023-07-24T04:05:16;5.35;;;3.72;;
31306;SDS011;17935;51.120;13.132;2023-07-24T04:07:42;4.20;;;3.63;;
31306;SDS011;17935;51.120;13.132;2023-07-24T04:10:08;9.65;;;4.22;;
31306;SDS011;17935;51.120;13.132;2023-07-24T04:12:34;5.45;;;3.45;;
31306;SDS011;17935;51.120;13.132;2023-07-24T04:15:00;9.38;;;4.15;;
31306;SDS011;17935;51.120;13.132;2023-07-24T04:17:26;6.80;;;4.18;;
31306;SDS011;17935;51.120;13.132;2023-07-24T04:19:52;6.93;;;4.00;;
31306;SDS011;17935;51.120;13.132;2023-07-24T04:22:18;5.63;;;3.90;;
31306;SDS011;17935;51.120;13.132;2023-07-24T04:24:44;4.95;;;3.85;;
31306;SDS011;17935;51.120;13.132;2023-07-24T04:27:10;19.88;;;4.20;;
31306;SDS011;17935;51.120;13.132;2023-07-24T04:29:36;5.88;;;3.60;;
31306;SDS011;17935;51.120;13.132;2023-07-24T04:32:02;9.13;;;4.07;;
31306;SDS011;17935;51.120;13.132;2023-07-24T04:34:28;7.03;;;3.90;;
31306;SDS011;17935;51.120;13.132;2023-07-24T04:36:54;6.50;;;3.47;;
31306;SDS011;17935;51.120;13.132;2023-07-24T04:39:20;10.00;;;3.85;;
31306;SDS011;17935;51.120;13.132;2023-07-24T04:41:46;7.05;;;3.60;;
31306;SDS011;17935;51.120;13.132;2023-07-24T04:44:12;9.57;;;4.00;;
31306;SDS011;17935;51.120;13.132;2023-07-24T04:46:38;9.02;;;3.65;;
31306;SDS011;17935;51.120;13.132;2023-07-24T04:49:04;5.32;;;3.75;;
31306;SDS011;17935;51.120;13.132;2023-07-24T04:51:30;6.53;;;3.95;;
31306;SDS011;17935;51.120;13.132;2023-07-24T04:53:56;4.82;;;3.70;;
31306;SDS011;17935;51.120;13.132;2023-07-24T04:56:22;5.22;;;3.72;;
31306;SDS011;17935;51.120;13.132;2023-07-24T04:58:48;5.07;;;3.58;;
31306;SDS011;17935;51.120;13.132;2023-07-24T05:01:14;9.75;;;4.13;;
31306;SDS011;17935;51.120;13.132;2023-07-24T05:03:40;8.13;;;4.00;;
31306;SDS011;17935;51.120;13.132;2023-07-24T05:06:06;6.22;;;3.75;;
31306;SDS011;17935;51.120;13.132;2023-07-24T05:08:32;7.97;;;4.53;;
31306;SDS011;17935;51.120;13.132;2023-07-24T05:10:58;6.68;;;4.20;;
31306;SDS011;17935;51.120;13.132;2023-07-24T05:13:25;5.50;;;3.72;;
31306;SDS011;17935;51.120;13.132;2023-07-24T05:15:51;8.73;;;4.32;;
31306;SDS011;17935;51.120;13.132;2023-07-24T05:18:17;7.22;;;4.35;;
31306;SDS011;17935;51.120;13.132;2023-07-24T05:20:46;7.63;;;4.10;;
31306;SDS011;17935;51.120;13.132;2023-07-24T05:23:13;6.53;;;4.13;;
31306;SDS011;17935;51.120;13.132;2023-07-24T05:25:39;5.38;;;3.97;;
31306;SDS011;17935;51.120;13.132;2023-07-24T05:28:06;7.30;;;4.13;;
31306;SDS011;17935;51.120;13.132;2023-07-24T05:30:34;7.93;;;4.72;;
31306;SDS011;17935;51.120;13.132;2023-07-24T05:33:00;6.32;;;3.97;;
31306;SDS011;17935;51.120;13.132;2023-07-24T05:35:27;6.40;;;4.00;;
31306;SDS011;17935;51.120;13.132;2023-07-24T05:37:53;9.10;;;3.83;;
31306;SDS011;17935;51.120;13.132;2023-07-24T05:40:19;6.55;;;3.83;;
31306;SDS011;17935;51.120;13.132;2023-07-24T05:42:45;8.18;;;4.15;;
31306;SDS011;17935;51.120;13.132;2023-07-24T05:45:12;5.13;;;3.80;;
31306;SDS011;17935;51.120;13.132;2023-07-24T05:47:40;5.43;;;3.75;;
31306;SDS011;17935;51.120;13.132;2023-07-24T05:50:06;8.40;;;3.85;;
31306;SDS011;17935;51.120;13.132;2023-07-24T05:52:32;9.52;;;4.55;;
31306;SDS011;17935;51.120;13.132;2023-07-24T05:54:58;5.20;;;3.90;;
31306;SDS011;17935;51.120;13.132;2023-07-24T05:57:24;7.35;;;3.75;;
31306;SDS011;17935;51.120;13.132;2023-07-24T05:59:50;4.75;;;3.92;;
31306;SDS011;17935;51.120;13.132;2023-07-24T06:02:17;7.10;;;4.10;;
31306;SDS011;17935;51.120;13.132;2023-07-24T06:04:43;5.30;;;3.85;;
31306;SDS011;17935;51.120;13.132;2023-07-24T06:07:09;6.20;;;4.00;;
31306;SDS011;17935;51.120;13.132;2023-07-24T06:09:35;5.55;;;4.22;;
31306;SDS011;17935;51.120;13.132;2023-07-24T06:12:01;6.05;;;4.25;;
31306;SDS011;17935;51.120;13.132;2023-07-24T06:14:26;4.93;;;3.70;;
31306;SDS011;17935;51.120;13.132;2023-07-24T06:16:52;5.55;;;3.72;;
31306;SDS011;17935;51.120;13.132;2023-07-24T06:19:18;4.57;;;3.70;;
31306;SDS011;17935;51.120;13.132;2023-07-24T06:31:32;5.97;;;4.10;;
31306;SDS011;17935;51.120;13.132;2023-07-24T06:33:58;4.53;;;3.67;;
31306;SDS011;17935;51.120;13.132;2023-07-24T06:36:24;4.20;;;3.60;;
31306;SDS011;17935;51.120;13.132;2023-07-24T06:38:50;5.13;;;3.38;;
31306;SDS011;17935;51.120;13.132;2023-07-24T06:41:16;4.68;;;4.07;;
31306;SDS011;17935;51.120;13.132;2023-07-24T06:43:45;4.25;;;3.85;;
31306;SDS011;17935;51.120;13.132;2023-07-24T06:46:11;4.18;;;3.80;;
31306;SDS011;17935;51.120;13.132;2023-07-24T06:48:37;4.03;;;3.63;;
31306;SDS011;17935;51.120;13.132;2023-07-24T06:51:03;6.03;;;4.28;;
31306;SDS011;17935;51.120;13.132;2023-07-24T06:53:31;5.22;;;4.50;;
31306;SDS011;17935;51.120;13.132;2023-07-24T06:55:57;5.78;;;4.07;;
31306;SDS011;17935;51.120;13.132;2023-07-24T06:58:23;6.72;;;4.43;;
31306;SDS011;17935;51.120;13.132;2023-07-24T07:00:50;5.53;;;3.80;;
31306;SDS011;17935;51.120;13.132;2023-07-24T07:03:16;6.15;;;4.60;;
31306;SDS011;17935;51.120;13.132;2023-07-24T07:05:42;5.00;;;4.45;;
31306;SDS011;17935;51.120;13.132;2023-07-24T07:08:08;6.20;;;4.20;;
31306;SDS011;17935;51.120;13.132;2023-07-24T07:10:34;4.55;;;4.03;;
31306;SDS011;17935;51.120;13.132;2023-07-24T07:13:00;4.70;;;4.22;;
31306;SDS011;17935;51.120;13.132;2023-07-24T07:15:26;7.10;;;4.47;;
31306;SDS011;17935;51.120;13.132;2023-07-24T07:17:52;7.32;;;4.38;;
31306;SDS011;17935;51.120;13.132;2023-07-24T07:20:18;9.77;;;4.57;;
31306;SDS011;17935;51.120;13.132;2023-07-24T07:22:44;7.28;;;4.85;;
31306;SDS011;17935;51.120;13.132;2023-07-24T07:25:10;6.60;;;5.00;;
31306;SDS011;17935;51.120;13.132;2023-07-24T07:27:36;8.55;;;4.60;;
31306;SDS011;17935;51.120;13.132;2023-07-24T07:30:03;8.85;;;4.93;;
31306;SDS011;17935;51.120;13.132;2023-07-24T07:32:29;5.55;;;4.40;;
31306;SDS011;17935;51.120;13.132;2023-07-24T07:34:55;10.57;;;4.93;;
31306;SDS011;17935;51.120;13.132;2023-07-24T07:37:21;13.82;;;5.03;;
31306;SDS011;17935;51.120;13.132;2023-07-24T07:39:47;6.53;;;4.93;;
31306;SDS011;17935;51.120;13.132;2023-07-24T07:42:13;5.18;;;4.60;;
31306;SDS011;17935;51.120;13.132;2023-07-24T07:44:39;5.80;;;4.75;;
31306;SDS011;17935;51.120;13.132;2023-07-24T07:47:05;6.13;;;4.57;;
31306;SDS011;17935;51.120;13.132;2023-07-24T07:49:31;6.30;;;4.13;;
31306;SDS011;17935;51.120;13.132;2023-07-24T07:52:15;4.82;;;4.32;;
31306;SDS011;17935;51.120;13.132;2023-07-24T07:54:45;7.95;;;4.82;;
31306;SDS011;17935;51.120;13.132;2023-07-24T07:57:11;5.15;;;4.25;;
31306;SDS011;17935;51.120;13.132;2023-07-24T07:59:38;4.70;;;4.20;;
31306;SDS011;17935;51.120;13.132;2023-07-24T08:02:04;7.80;;;4.65;;
31306;SDS011;17935;51.120;13.132;2023-07-24T08:04:30;6.28;;;4.28;;
31306;SDS011;17935;51.120;13.132;2023-07-24T08:06:56;9.02;;;4.68;;
31306;SDS011;17935;51.120;13.132;2023-07-24T08:09:22;4.97;;;4.53;;
31306;SDS011;17935;51.120;13.132;2023-07-24T08:11:51;6.70;;;5.10;;
31306;SDS011;17935;51.120;13.132;2023-07-24T08:14:17;9.25;;;4.80;;
31306;SDS011;17935;51.120;13.132;2023-07-24T08:16:44;6.25;;;4.47;;
31306;SDS011;17935;51.120;13.132;2023-07-24T08:19:10;6.65;;;4.53;;
31306;SDS011;17935;51.120;13.132;2023-07-24T08:21:36;7.13;;;4.40;;
31306;SDS011;17935;51.120;13.132;2023-07-24T08:24:04;5.63;;;4.57;;
31306;SDS011;17935;51.120;13.132;2023-07-24T08:26:30;7.43;;;4.75;;
31306;SDS011;17935;51.120;13.132;2023-07-24T08:28:56;5.07;;;4.57;;
31306;SDS011;17935;51.120;13.132;2023-07-24T08:31:22;5.45;;;4.55;;
31306;SDS011;17935;51.120;13.132;2023-07-24T08:33:48;6.78;;;4.90;;
31306;SDS011;17935;51.120;13.132;2023-07-24T08:36:14;7.45;;;4.18;;
31306;SDS011;17935;51.120;13.132;2023-07-24T08:38:40;6.32;;;4.75;;
31306;SDS011;17935;51.120;13.132;2023-07-24T08:43:34;7.22;;;5.10;;
31306;SDS011;17935;51.120;13.132;2023-07-24T08:46:00;5.72;;;4.85;;
31306;SDS011;17935;51.120;13.132;2023-07-24T08:48:29;5.60;;;4.80;;
31306;SDS011;17935;51.120;13.132;2023-07-24T08:50:56;6.63;;;4.72;;
31306;SDS011;17935;51.120;13.132;2023-07-24T08:53:22;6.13;;;5.53;;
31306;SDS011;17935;51.120;13.132;2023-07-24T08:55:48;8.38;;;6.45;;
31306;SDS011;17935;51.120;13.132;2023-07-24T08:58:15;8.52;;;5.55;;
31306;SDS011;17935;51.120;13.132;2023-07-24T09:00:40;6.90;;;5.47;;
31306;SDS011;17935;51.120;13.132;2023-07-24T09:03:06;6.38;;;5.18;;
31306;SDS011;17935;51.120;13.132;2023-07-24T09:05:33;6.88;;;5.65;;
31306;SDS011;17935;51.120;13.132;2023-07-24T09:07:59;11.80;;;5.45;;
31306;SDS011;17935;51.120;13.132;2023-07-24T09:10:26;7.32;;;5.10;;
31306;SDS011;17935;51.120;13.132;2023-07-24T09:12:52;10.98;;;5.95;;
31306;SDS011;17935;51.120;13.132;2023-07-24T09:15:18;7.43;;;5.70;;
31306;SDS011;17935;51.120;13.132;2023-07-24T09:17:50;8.30;;;5.90;;
31306;SDS011;17935;51.120;13.132;2023-07-24T09:20:17;7.60;;;5.88;;
31306;SDS011;17935;51.120;13.132;2023-07-24T09:22:53;7.70;;;5.38;;
31306;SDS011;17935;51.120;13.132;2023-07-24T09:25:31;11.77;;;5.97;;
31306;SDS011;17935;51.120;13.132;2023-07-24T09:27:58;8.80;;;5.70;;
31306;SDS011;17935;51.120;13.132;2023-07-24T09:30:24;7.72;;;5.22;;
31306;SDS011;17935;51.120;13.132;2023-07-24T09:32:54;8.95;;;5.85;;
31306;SDS011;17935;51.120;13.132;2023-07-24T09:35:21;6.95;;;5.50;;
31306;SDS011;17935;51.120;13.132;2023-07-24T09:38:00;8.98;;;5.47;;
31306;SDS011;17935;51.120;13.132;2023-07-24T09:40:26;8.55;;;6.25;;
31306;SDS011;17935;51.120;13.132;2023-07-24T09:42:52;6.32;;;5.53;;
31306;SDS011;17935;51.120;13.132;2023-07-24T09:45:19;8.10;;;5.28;;
31306;SDS011;17935;51.120;13.132;2023-07-24T09:47:53;7.45;;;5.88;;
31306;SDS011;17935;51.120;13.132;2023-07-24T09:50:27;9.50;;;5.82;;
31306;SDS011;17935;51.120;13.132;2023-07-24T09:52:53;10.15;;;5.40;;
31306;SDS011;17935;51.120;13.132;2023-07-24T09:55:25;8.77;;;6.10;;
31306;SDS011;17935;51.120;13.132;2023-07-24T09:57:55;10.48;;;5.85;;
31306;SDS011;17935;51.120;13.132;2023-07-24T10:00:22;8.13;;;6.03;;
31306;SDS011;17935;51.120;13.132;2023-07-24T10:02:48;6.65;;;5.63;;
31306;SDS011;17935;51.120;13.132;2023-07-24T10:05:14;12.25;;;6.20;;
31306;SDS011;17935;51.120;13.132;2023-07-24T10:07:41;7.88;;;5.18;;
31306;SDS011;17935;51.120;13.132;2023-07-24T10:10:07;10.40;;;5.25;;
31306;SDS011;17935;51.120;13.132;2023-07-24T10:12:34;11.07;;;5.47;;
31306;SDS011;17935;51.120;13.132;2023-07-24T10:15:01;12.60;;;5.75;;
31306;SDS011;17935;51.120;13.132;2023-07-24T10:17:37;8.93;;;5.60;;
31306;SDS011;17935;51.120;13.132;2023-07-24T10:20:16;8.15;;;5.40;;
31306;SDS011;17935;51.120;13.132;2023-07-24T10:22:43;9.10;;;5.22;;
31306;SDS011;17935;51.120;13.132;2023-07-24T10:25:09;7.63;;;5.82;;
31306;SDS011;17935;51.120;13.132;2023-07-24T10:27:36;9.20;;;5.95;;
31306;SDS011;17935;51.120;13.132;2023-07-24T10:30:05;9.35;;;5.00;;
31306;SDS011;17935;51.120;13.132;2023-07-24T10:32:32;8.25;;;5.43;;
31306;SDS011;17935;51.120;13.132;2023-07-24T10:34:59;9.88;;;5.85;;
31306;SDS011;17935;51.120;13.132;2023-07-24T10:37:32;8.32;;;5.50;;
31306;SDS011;17935;51.120;13.132;2023-07-24T10:39:59;8.70;;;5.10;;
31306;SDS011;17935;51.120;13.132;2023-07-24T10:42:26;12.73;;;6.05;;
31306;SDS011;17935;51.120;13.132;2023-07-24T10:45:07;7.35;;;5.53;;
31306;SDS011;17935;51.120;13.132;2023-07-24T10:47:34;17.27;;;5.72;;
31306;SDS011;17935;51.120;13.132;2023-07-24T10:50:00;6.18;;;5.30;;
31306;SDS011;17935;51.120;13.132;2023-07-24T10:52:28;12.25;;;5.15;;
31306;SDS011;17935;51.120;13.132;2023-07-24T10:54:55;9.20;;;5.53;;
31306;SDS011;17935;51.120;13.132;2023-07-24T10:57:27;8.43;;;5.47;;
31306;SDS011;17935;51.120;13.132;2023-07-24T10:59:53;10.32;;;6.05;;
31306;SDS011;17935;51.120;13.132;2023-07-24T11:02:23;10.80;;;5.65;;
31306;SDS011;17935;51.120;13.132;2023-07-24T11:04:52;7.35;;;5.43;;
31306;SDS011;17935;51.120;13.132;2023-07-24T11:07:18;10.70;;;6.20;;
31306;SDS011;17935;51.120;13.132;2023-07-24T11:09:44;10.75;;;5.57;;
31306;SDS011;17935;51.120;13.132;2023-07-24T11:14:49;7.00;;;5.30;;
31306;SDS011;17935;51.120;13.132;2023-07-24T11:17:21;7.68;;;5.60;;
31306;SDS011;17935;51.120;13.132;2023-07-24T11:20:13;8.20;;;5.85;;
31306;SDS011;17935;51.120;13.132;2023-07-24T11:23:08;8.68;;;6.07;;
31306;SDS011;17935;51.120;13.132;2023-07-24T11:25:37;7.90;;;5.75;;
31306;SDS011;17935;51.120;13.132;2023-07-24T11:28:09;9.73;;;6.18;;
31306;SDS011;17935;51.120;13.132;2023-07-24T11:30:50;10.25;;;6.68;;
31306;SDS011;17935;51.120;13.132;2023-07-24T11:33:17;10.77;;;5.97;;
31306;SDS011;17935;51.120;13.132;2023-07-24T11:35:46;8.82;;;6.28;;
31306;SDS011;17935;51.120;13.132;2023-07-24T11:38:31;8.57;;;6.40;;
31306;SDS011;17935;51.120;13.132;2023-07-24T11:41:00;8.13;;;6.55;;
31306;SDS011;17935;51.120;13.132;2023-07-24T11:46:23;8.52;;;6.45;;
31306;SDS011;17935;51.120;13.132;2023-07-24T11:48:49;9.85;;;6.28;;
31306;SDS011;17935;51.120;13.132;2023-07-24T11:51:19;11.00;;;7.05;;
31306;SDS011;17935;51.120;13.132;2023-07-24T11:56:48;10.77;;;5.95;;
31306;SDS011;17935;51.120;13.132;2023-07-24T11:59:14;14.93;;;6.28;;
31306;SDS011;17935;51.120;13.132;2023-07-24T12:01:41;9.13;;;6.38;;
31306;SDS011;17935;51.120;13.132;2023-07-24T12:04:17;15.35;;;7.15;;
31306;SDS011;17935;51.120;13.132;2023-07-24T12:06:56;10.75;;;6.45;;
31306;SDS011;17935;51.120;13.132;2023-07-24T12:12:42;9.20;;;6.57;;
31306;SDS011;17935;51.120;13.132;2023-07-24T12:15:17;11.50;;;6.45;;
31306;SDS011;17935;51.120;13.132;2023-07-24T12:18:30;7.93;;;6.55;;
31306;SDS011;17935;51.120;13.132;2023-07-24T12:21:03;10.63;;;7.30;;
31306;SDS011;17935;51.120;13.132;2023-07-24T12:23:33;14.73;;;6.90;;
31306;SDS011;17935;51.120;13.132;2023-07-24T12:25:59;11.70;;;6.65;;
31306;SDS011;17935;51.120;13.132;2023-07-24T12:28:25;13.88;;;7.20;;
31306;SDS011;17935;51.120;13.132;2023-07-24T12:30:51;10.40;;;6.35;;
31306;SDS011;17935;51.120;13.132;2023-07-24T12:33:18;17.48;;;6.68;;
31306;SDS011;17935;51.120;13.132;2023-07-24T12:35:50;12.25;;;6.35;;
31306;SDS011;17935;51.120;13.132;2023-07-24T12:38:17;13.55;;;6.70;;
31306;SDS011;17935;51.120;13.132;2023-07-24T12:40:43;9.85;;;6.15;;
31306;SDS011;17935;51.120;13.132;2023-07-24T12:43:10;8.23;;;6.25;;
31306;SDS011;17935;51.120;13.132;2023-07-24T12:45:36;8.68;;;5.93;;
31306;SDS011;17935;51.120;13.132;2023-07-24T12:48:02;10.30;;;6.13;;
31306;SDS011;17935;51.120;13.132;2023-07-24T12:50:28;9.45;;;5.65;;
31306;SDS011;17935;51.120;13.132;2023-07-24T12:52:55;10.13;;;5.75;;
31306;SDS011;17935;51.120;13.132;2023-07-24T12:55:21;6.65;;;5.00;;
31306;SDS011;17935;51.120;13.132;2023-07-24T12:57:47;7.78;;;6.28;;
31306;SDS011;17935;51.120;13.132;2023-07-24T13:00:13;6.22;;;5.45;;
31306;SDS011;17935;51.120;13.132;2023-07-24T13:02:39;17.10;;;5.13;;
31306;SDS011;17935;51.120;13.132;2023-07-24T13:05:06;6.03;;;4.70;;
31306;SDS011;17935;51.120;13.132;2023-07-24T13:07:32;6.78;;;4.93;;
31306;SDS011;17935;51.120;13.132;2023-07-24T13:09:58;10.82;;;5.47;;
31306;SDS011;17935;51.120;13.132;2023-07-24T13:12:24;7.05;;;5.13;;
31306;SDS011;17935;51.120;13.132;2023-07-24T13:14:50;7.00;;;4.97;;
31306;SDS011;17935;51.120;13.132;2023-07-24T13:17:16;5.20;;;4.22;;
31306;SDS011;17935;51.120;13.132;2023-07-24T13:19:42;5.85;;;4.50;;
31306;SDS011;17935;51.120;13.132;2023-07-24T13:22:08;5.75;;;4.75;;
31306;SDS011;17935;51.120;13.132;2023-07-24T13:24:34;7.10;;;4.85;;
31306;SDS011;17935;51.120;13.132;2023-07-24T13:27:03;8.18;;;4.45;;
31306;SDS011;17935;51.120;13.132;2023-07-24T13:29:29;8.15;;;5.65;;
31306;SDS011;17935;51.120;13.132;2023-07-24T13:31:58;8.45;;;4.65;;
31306;SDS011;17935;51.120;13.132;2023-07-24T13:34:24;5.00;;;4.30;;
31306;SDS011;17935;51.120;13.132;2023-07-24T13:36:51;5.22;;;4.10;;
31306;SDS011;17935;51.120;13.132;2023-07-24T13:39:17;6.72;;;4.00;;
31306;SDS011;17935;51.120;13.132;2023-07-24T13:41:46;8.65;;;4.30;;
31306;SDS011;17935;51.120;13.132;2023-07-24T13:44:20;7.70;;;4.30;;
31306;SDS011;17935;51.120;13.132;2023-07-24T13:46:49;9.27;;;4.85;;
31306;SDS011;17935;51.120;13.132;2023-07-24T13:49:15;7.13;;;5.13;;
31306;SDS011;17935;51.120;13.132;2023-07-24T13:51:41;9.20;;;4.55;;
31306;SDS011;17935;51.120;13.132;2023-07-24T13:57:00;6.35;;;4.30;;
31306;SDS011;17935;51.120;13.132;2023-07-24T13:59:26;6.03;;;4.95;;
31306;SDS011;17935;51.120;13.132;2023-07-24T14:01:52;6.18;;;4.72;;
31306;SDS011;17935;51.120;13.132;2023-07-24T14:04:18;6.07;;;5.07;;
31306;SDS011;17935;51.120;13.132;2023-07-24T14:06:44;9.68;;;5.30;;
31306;SDS011;17935;51.120;13.132;2023-07-24T14:09:10;14.30;;;6.13;;
31306;SDS011;17935;51.120;13.132;2023-07-24T14:11:36;6.82;;;5.30;;
31306;SDS011;17935;51.120;13.132;2023-07-24T14:14:02;7.38;;;5.28;;
31306;SDS011;17935;51.120;13.132;2023-07-24T14:16:28;8.10;;;5.72;;
31306;SDS011;17935;51.120;13.132;2023-07-24T14:18:55;10.15;;;5.35;;
31306;SDS011;17935;51.120;13.132;2023-07-24T14:21:21;11.85;;;6.07;;
31306;SDS011;17935;51.120;13.132;2023-07-24T14:23:47;8.90;;;5.47;;
31306;SDS011;17935;51.120;13.132;2023-07-24T14:26:13;6.68;;;5.53;;
31306;SDS011;17935;51.120;13.132;2023-07-24T14:28:39;11.43;;;5.57;;
31306;SDS011;17935;51.120;13.132;2023-07-24T14:31:05;9.35;;;6.10;;
31306;SDS011;17935;51.120;13.132;2023-07-24T14:33:31;8.05;;;5.57;;
31306;SDS011;17935;51.120;13.132;2023-07-24T14:35:57;7.68;;;5.60;;
31306;SDS011;17935;51.120;13.132;2023-07-24T14:38:23;6.00;;;4.88;;
31306;SDS011;17935;51.120;13.132;2023-07-24T14:41:01;9.73;;;6.50;;
31306;SDS011;17935;51.120;13.132;2023-07-24T14:43:44;8.05;;;5.28;;
31306;SDS011;17935;51.120;13.132;2023-07-24T14:46:18;8.35;;;6.05;;
31306;SDS011;17935;51.120;13.132;2023-07-24T14:48:48;7.75;;;5.93;;
31306;SDS011;17935;51.120;13.132;2023-07-24T14:51:17;15.07;;;6.90;;
31306;SDS011;17935;51.120;13.132;2023-07-24T14:54:12;9.40;;;6.60;;
31306;SDS011;17935;51.120;13.132;2023-07-24T14:59:37;11.15;;;6.75;;
31306;SDS011;17935;51.120;13.132;2023-07-24T15:02:03;9.25;;;6.22;;
31306;SDS011;17935;51.120;13.132;2023-07-24T15:04:29;14.43;;;7.18;;